Time;durP1;ratioP1;P1;durP2;ratioP2;P2;SDS_P1;SDS_P2;PMS_P1;PMS_P2;Temp;Humidity;BMP_temperature;BMP_pressure;BME280_temperature;BME280_humidity;BME280_pressure;Samples;Min_cycle;Max_cycle;Signal;HPM_P1;HPM_P2
2023/04/08 00:02:25;;;;;;;16.30;12.10;;;;;;;12.75;62.01;100915.95;107941;1254;71617;-83
2023/04/08 00:04:53;;;;;;;18.00;13.20;;;;;;;12.71;62.05;100917.01;107995;1256;63020;-83
2023/04/08 00:07:20;;;;;;;16.10;13.10;;;;;;;12.66;62.26;100915.32;108113;1257;60335;-83
2023/04/08 00:09:48;;;;;;;17.50;13.10;;;;;;;12.61;62.43;100917.13;108419;1254;72102;-79
2023/04/08 00:12:14;;;;;;;19.40;14.60;;;;;;;12.59;62.62;100915.92;108565;1253;72441;-82
2023/04/08 00:14:41;;;;;;;21.20;15.90;;;;;;;12.57;62.77;100918.72;108189;1254;71353;-82
2023/04/08 00:17:08;;;;;;;22.50;18.00;;;;;;;12.58;62.88;100917.48;108093;1254;60735;-83
2023/04/08 00:19:35;;;;;;;21.80;17.50;;;;;;;12.55;63.01;100917.42;108104;1254;61237;-82
2023/04/08 00:22:02;;;;;;;24.90;18.90;;;;;;;12.52;63.23;100915.70;108072;1254;74142;-82
2023/04/08 00:24:30;;;;;;;26.00;18.50;;;;;;;12.56;63.38;100912.27;108055;1254;73090;-82
2023/04/08 00:27:01;;;;;;;24.00;18.60;;;;;;;12.62;63.40;100909.19;108090;1258;72669;-82
2023/04/08 00:29:31;;;;;;;25.70;18.10;;;;;;;12.69;63.28;100910.08;108202;1254;60376;-85
2023/04/08 00:31:58;;;;;;;24.20;18.00;;;;;;;12.70;63.30;100908.21;108079;1254;60339;-82
2023/04/08 00:34:25;;;;;;;25.10;17.20;;;;;;;12.67;63.42;100912.38;108082;1254;73684;-81
2023/04/08 00:36:55;;;;;;;20.10;15.40;;;;;;;12.66;63.44;100912.48;108056;1255;72371;-81
2023/04/08 00:39:23;;;;;;;20.80;15.60;;;;;;;12.63;63.51;100916.65;108069;1256;72353;-81
2023/04/08 00:41:50;;;;;;;16.30;13.10;;;;;;;12.60;63.71;100916.52;108121;1257;63019;-81
2023/04/08 00:44:25;;;;;;;13.40;10.80;;;;;;;12.57;63.78;100918.59;108277;1254;61580;-82
2023/04/08 00:46:56;;;;;;;13.00;9.30;;;;;;;12.50;64.00;100919.59;107852;1253;74089;-82
2023/04/08 00:49:25;;;;;;;15.30;10.00;;;;;;;12.39;64.46;100919.05;108072;1254;73910;-82
2023/04/08 00:51:53;;;;;;;15.30;10.30;;;;;;;12.29;64.80;100917.49;108146;1253;72302;-83
2023/04/08 00:54:23;;;;;;;13.80;9.70;;;;;;;12.24;65.19;100917.14;108132;1254;61111;-81
2023/04/08 00:56:50;;;;;;;13.50;9.20;;;;;;;12.20;65.59;100914.27;108116;1254;60332;-80
2023/04/08 00:59:17;;;;;;;14.40;9.70;;;;;;;12.15;65.99;100912.00;108052;1254;73509;-81
2023/04/08 01:01:48;;;;;;;12.70;9.10;;;;;;;12.11;66.29;100910.21;108090;1254;71870;-81
2023/04/08 01:04:37;;;;;;;13.30;9.80;;;;;;;12.10;66.57;100903.08;108101;1257;71753;-80
2023/04/08 01:07:16;;;;;;;12.00;8.40;;;;;;;12.09;66.90;100901.68;108041;1254;60838;-81
2023/04/08 01:09:50;;;;;;;14.50;9.80;;;;;;;12.06;67.30;100903.33;108040;1254;60433;-81
2023/04/08 01:12:26;;;;;;;10.30;8.40;;;;;;;12.02;67.57;100904.70;108044;1254;72758;-81
2023/04/08 01:15:00;;;;;;;11.80;9.10;;;;;;;11.99;67.77;100909.00;108146;1253;73595;-82
2023/04/08 01:17:27;;;;;;;12.10;8.60;;;;;;;11.94;68.01;100905.29;108144;1254;72848;-81
2023/04/08 01:19:56;;;;;;;12.30;9.20;;;;;;;11.90;68.33;100903.59;108018;1254;61101;-81
2023/04/08 01:22:38;;;;;;;12.20;9.40;;;;;;;11.85;68.56;100904.02;108156;1254;61169;-81
2023/04/08 01:25:11;;;;;;;12.00;9.00;;;;;;;11.78;68.88;100905.34;108141;1253;73028;-80
2023/04/08 01:27:38;;;;;;;12.60;10.30;;;;;;;11.73;69.20;100909.69;108289;1253;73282;-81
2023/04/08 01:30:07;;;;;;;12.40;9.20;;;;;;;11.69;69.45;100909.72;108167;1254;72582;-81
2023/04/08 01:32:34;;;;;;;12.20;9.00;;;;;;;11.68;69.66;100908.84;108111;1254;62982;-82
2023/04/08 01:35:01;;;;;;;12.00;9.40;;;;;;;11.70;69.79;100908.50;108044;1257;60389;-82
2023/04/08 01:37:29;;;;;;;12.10;9.10;;;;;;;11.73;70.07;100912.01;108067;1257;72836;-82
2023/04/08 01:40:09;;;;;;;13.00;9.60;;;;;;;11.75;70.17;100907.63;108073;1257;73123;-82
2023/04/08 01:42:38;;;;;;;11.70;9.50;;;;;;;11.74;70.44;100907.45;108095;1254;73473;-82
2023/04/08 01:45:06;;;;;;;14.10;10.10;;;;;;;11.75;70.46;100904.09;108280;1254;60460;-81
2023/04/08 01:47:36;;;;;;;12.40;9.50;;;;;;;11.75;70.65;100901.36;108185;1254;60897;-82
2023/04/08 01:50:05;;;;;;;13.00;10.50;;;;;;;11.73;70.88;100901.77;107770;1256;74276;-82
2023/04/08 01:52:34;;;;;;;12.10;9.70;;;;;;;11.72;70.95;100906.27;104283;1254;5222943;-83
2023/04/08 01:55:14;;;;;;;12.70;10.00;;;;;;;11.72;71.16;100902.15;108132;1254;60524;-81
2023/04/08 01:57:48;;;;;;;11.70;9.10;;;;;;;11.76;71.18;100902.98;107993;1256;61219;-81
2023/04/08 02:00:18;;;;;;;12.10;9.00;;;;;;;11.80;71.39;100901.73;108130;1254;74948;-82
2023/04/08 02:02:51;;;;;;;12.00;9.30;;;;;;;11.82;71.36;100899.39;108181;1254;73960;-82
2023/04/08 02:05:20;;;;;;;12.90;9.60;;;;;;;11.83;71.52;100900.45;107981;1253;73611;-82
2023/04/08 02:07:48;;;;;;;11.80;9.30;;;;;;;11.84;71.64;100900.16;108130;1253;60456;-81
2023/04/08 02:10:21;;;;;;;13.50;10.10;;;;;;;11.87;71.66;100900.41;108169;1254;60342;-82
2023/04/08 02:12:49;;;;;;;13.10;9.50;;;;;;;11.89;71.71;100903.58;108216;1253;73933;-83
2023/04/08 02:15:16;;;;;;;14.40;10.20;;;;;;;11.91;71.85;100903.92;108282;1254;73111;-82
2023/04/08 02:18:13;;;;;;;12.00;9.80;;;;;;;11.94;71.99;100906.35;107994;1254;71922;-82
2023/04/08 02:20:46;;;;;;;12.20;9.30;;;;;;;11.98;71.94;100908.04;108125;1254;63055;-81
2023/04/08 02:23:24;;;;;;;13.30;10.00;;;;;;;11.95;72.05;100907.80;108206;1254;60336;-82
2023/04/08 02:25:51;;;;;;;13.30;11.00;;;;;;;11.90;72.06;100906.05;108177;1253;74884;-82
2023/04/08 02:28:18;;;;;;;13.20;10.10;;;;;;;11.89;72.26;100902.24;108200;1254;72239;-82
2023/04/08 02:30:48;;;;;;;12.70;9.80;;;;;;;11.88;72.25;100897.80;108321;1253;72982;-82
2023/04/08 02:33:17;;;;;;;11.80;9.30;;;;;;;11.88;72.37;100897.75;108300;1254;63167;-82
2023/04/08 02:35:45;;;;;;;13.40;10.30;;;;;;;11.87;72.42;100899.50;108322;1254;60376;-82
2023/04/08 02:38:13;;;;;;;12.00;10.10;;;;;;;11.89;72.43;100899.73;108064;1254;74740;-80
2023/04/08 02:40:40;;;;;;;12.30;9.80;;;;;;;11.92;72.48;100901.95;108353;1254;72332;-83
2023/04/08 02:43:07;;;;;;;12.60;9.30;;;;;;;11.95;72.56;100903.63;108221;1253;72788;-82
2023/04/08 02:45:42;;;;;;;13.90;10.90;;;;;;;12.00;72.53;100902.09;108171;1257;62861;-82
2023/04/08 02:48:09;;;;;;;12.10;9.60;;;;;;;12.03;72.57;100900.46;107977;1257;60948;-82
2023/04/08 02:50:38;;;;;;;19.00;10.70;;;;;;;12.04;72.48;100896.67;107984;1257;72920;-82
2023/04/08 02:53:07;;;;;;;13.00;10.50;;;;;;;12.08;72.48;100896.22;108051;1254;72340;-82
2023/04/08 02:55:36;;;;;;;12.40;9.80;;;;;;;12.09;72.53;100895.09;108101;1259;72670;-82
2023/04/08 02:58:03;;;;;;;13.40;10.40;;;;;;;12.09;72.42;100900.66;108239;1256;61950;-82
2023/04/08 03:00:38;;;;;;;12.80;9.70;;;;;;;12.11;72.50;100899.88;108203;1253;60597;-82
2023/04/08 03:03:17;;;;;;;13.60;10.50;;;;;;;12.13;72.44;100903.85;108453;1253;72882;-82
2023/04/08 03:05:44;;;;;;;12.30;10.10;;;;;;;12.13;72.39;100903.36;108489;1254;72734;-82
2023/04/08 03:08:11;;;;;;;14.10;10.30;;;;;;;12.11;72.31;100898.81;108188;1254;71553;-82
2023/04/08 03:10:38;;;;;;;12.60;9.90;;;;;;;12.07;72.22;100903.60;108315;1254;62748;-81
2023/04/08 03:13:05;;;;;;;13.70;10.10;;;;;;;12.02;72.22;100901.91;108081;1254;60537;-81
2023/04/08 03:15:32;;;;;;;14.80;10.80;;;;;;;11.95;72.30;100901.11;108168;1254;73928;-83
2023/04/08 03:18:00;;;;;;;13.30;10.10;;;;;;;11.92;72.51;100900.30;108051;1254;71134;-83
2023/04/08 03:20:27;;;;;;;13.30;10.00;;;;;;;11.88;72.48;100901.71;108128;1254;73868;-83
2023/04/08 03:22:54;;;;;;;13.50;10.40;;;;;;;11.81;72.53;100902.85;108274;1254;62869;-81
2023/04/08 03:25:20;;;;;;;12.60;9.40;;;;;;;11.77;72.73;100907.85;108793;1253;60335;-81
2023/04/08 03:27:47;;;;;;;15.20;10.50;;;;;;;11.75;72.92;100910.78;108850;1257;72065;-73
2023/04/08 03:30:18;;;;;;;12.60;9.10;;;;;;;11.73;73.08;100916.49;108733;1257;71128;-82
2023/04/08 03:32:50;;;;;;;;;;;;;;;11.72;73.25;100921.30;108603;1257;70835;-76
2023/04/08 03:35:17;;;;;;;14.00;10.20;;;;;;;11.70;73.35;100922.41;108555;1257;60996;-82
2023/04/08 03:37:45;;;;;;;12.90;10.40;;;;;;;11.70;73.35;100924.77;108028;1257;60635;-81
2023/04/08 03:40:12;;;;;;;14.90;10.90;;;;;;;11.69;73.43;100918.34;107970;1257;72681;-81
2023/04/08 03:42:40;;;;;;;15.70;10.40;;;;;;;11.71;73.49;100922.85;108035;1257;73045;-82
2023/04/08 03:45:07;;;;;;;15.10;10.70;;;;;;;11.72;73.49;100925.37;108074;1256;72849;-80
2023/04/08 03:47:37;;;;;;;13.00;10.50;;;;;;;11.75;73.65;100928.13;108048;1255;62120;-83
2023/04/08 03:50:05;;;;;;;13.90;10.10;;;;;;;11.78;73.71;100921.84;108037;1256;60358;-81
2023/04/08 03:52:33;;;;;;;16.00;10.20;;;;;;;11.79;73.77;100926.02;107982;1257;73916;-83
2023/04/08 03:55:00;;;;;;;15.50;11.20;;;;;;;11.81;73.88;100924.96;108063;1256;73160;-83
2023/04/08 03:57:27;;;;;;;15.30;11.00;;;;;;;11.86;73.90;100926.27;107996;1256;72883;-84
2023/04/08 03:59:53;;;;;;;14.80;10.90;;;;;;;11.92;73.92;100926.20;108114;1257;60415;-80
2023/04/08 04:02:20;;;;;;;14.20;10.80;;;;;;;11.93;73.80;100921.49;108076;1257;60317;-81
2023/04/08 04:04:47;;;;;;;13.60;10.40;;;;;;;11.94;73.86;100919.58;108089;1257;73099;-80
2023/04/08 04:07:15;;;;;;;14.20;10.80;;;;;;;11.95;73.88;100921.84;108044;1259;71917;-81
2023/04/08 04:09:42;;;;;;;15.20;11.60;;;;;;;12.01;74.11;100920.59;108145;1254;73255;-81
2023/04/08 04:12:09;;;;;;;13.90;10.20;;;;;;;12.07;74.06;100924.86;108182;1254;61406;-81
2023/04/08 04:14:42;;;;;;;13.40;10.70;;;;;;;12.14;74.12;100925.05;108142;1254;60440;-82
2023/04/08 04:17:09;;;;;;;14.10;10.40;;;;;;;12.22;73.99;100924.63;108057;1259;73061;-81
2023/04/08 04:19:36;;;;;;;12.60;10.60;;;;;;;12.30;74.03;100932.29;108221;1254;72895;-82
2023/04/08 04:22:03;;;;;;;14.80;10.70;;;;;;;12.35;73.90;100934.73;108079;1256;73015;-82
2023/04/08 04:24:31;;;;;;;12.90;10.30;;;;;;;12.36;73.87;100931.41;108172;1254;63212;-81
2023/04/08 04:26:58;;;;;;;14.30;11.30;;;;;;;12.37;73.67;100933.93;108139;1256;60470;-82
2023/04/08 04:29:24;;;;;;;16.20;12.20;;;;;;;12.39;73.75;100932.35;108176;1254;73872;-82
2023/04/08 04:31:54;;;;;;;15.20;10.90;;;;;;;12.42;73.67;100932.73;108186;1254;74457;-82
2023/04/08 04:34:21;;;;;;;13.30;10.70;;;;;;;12.47;73.74;100939.62;108119;1254;71862;-82
2023/04/08 04:36:48;;;;;;;14.50;10.80;;;;;;;12.52;73.65;100937.83;108036;1254;62101;-82
2023/04/08 04:39:16;;;;;;;16.20;11.00;;;;;;;12.56;73.67;100937.73;108254;1254;60253;-82
2023/04/08 04:41:46;;;;;;;16.10;11.60;;;;;;;12.59;73.54;100941.77;108185;1254;74328;-81
2023/04/08 04:44:12;;;;;;;14.00;10.80;;;;;;;12.58;73.44;100941.81;108113;1254;73668;-82
2023/04/08 04:46:42;;;;;;;14.70;10.90;;;;;;;12.62;73.47;100942.09;108162;1257;71801;-83
2023/04/08 04:49:09;;;;;;;15.00;11.20;;;;;;;12.64;73.58;100952.95;108049;1254;62057;-82
2023/04/08 04:51:36;;;;;;;14.20;10.20;;;;;;;12.67;73.30;100951.46;108085;1258;59296;-82
2023/04/08 04:54:04;;;;;;;14.10;11.10;;;;;;;12.67;73.15;100951.19;108061;1254;73287;-81
2023/04/08 04:56:31;;;;;;;14.60;11.00;;;;;;;12.68;73.16;100947.70;108040;1255;73657;-82
2023/04/08 04:59:05;;;;;;;15.60;10.80;;;;;;;12.68;73.10;100951.72;108012;1258;73856;-82
2023/04/08 05:01:34;;;;;;;15.50;10.90;;;;;;;12.72;73.01;100952.44;108053;1254;62672;-82
2023/04/08 05:04:02;;;;;;;14.50;11.20;;;;;;;12.76;73.05;100961.79;108249;1253;60335;-82
2023/04/08 05:06:29;;;;;;;13.90;10.50;;;;;;;12.84;73.04;100962.52;108195;1254;73412;-81
2023/04/08 05:08:58;;;;;;;14.50;10.70;;;;;;;12.96;73.04;100960.63;108247;1254;72222;-81
2023/04/08 05:11:25;;;;;;;13.00;9.80;;;;;;;13.05;72.83;100958.95;108152;1254;71774;-81
2023/04/08 05:13:55;;;;;;;17.20;12.30;;;;;;;13.09;72.72;100960.73;108231;1253;61191;-81
2023/04/08 05:16:23;;;;;;;23.10;14.50;;;;;;;13.12;72.44;100968.31;108278;1254;61506;-81
2023/04/08 05:18:50;;;;;;;17.70;12.00;;;;;;;13.12;72.15;100968.94;108143;1254;73947;-81
2023/04/08 05:21:19;;;;;;;14.30;10.40;;;;;;;13.11;72.18;100968.04;108191;1254;71961;-81
2023/04/08 05:23:47;;;;;;;13.80;10.20;;;;;;;13.09;71.97;100968.94;108219;1254;73951;-81
2023/04/08 05:26:14;;;;;;;16.50;11.20;;;;;;;13.07;71.89;100963.95;108227;1254;62567;-82
2023/04/08 05:28:53;;;;;;;15.30;10.30;;;;;;;13.00;71.75;100959.58;108181;1254;60454;-83
2023/04/08 05:31:20;;;;;;;17.20;11.70;;;;;;;12.95;71.79;100955.80;108227;1254;74126;-83
2023/04/08 05:33:47;;;;;;;16.30;10.80;;;;;;;12.96;71.99;100960.52;108251;1254;72985;-83
2023/04/08 05:36:18;;;;;;;16.20;10.20;;;;;;;12.99;71.91;100969.34;108228;1254;72886;-82
2023/04/08 05:38:45;;;;;;;12.30;9.60;;;;;;;13.03;71.87;100961.56;108122;1254;61892;-83
2023/04/08 05:41:13;;;;;;;12.30;9.30;;;;;;;13.07;72.03;100963.45;108240;1254;60266;-81
2023/04/08 05:43:40;;;;;;;12.50;9.50;;;;;;;13.08;71.76;100965.92;108282;1254;74466;-81
2023/04/08 05:46:08;;;;;;;13.10;9.80;;;;;;;13.08;71.66;100972.79;108248;1257;71914;-83
2023/04/08 05:48:35;;;;;;;12.10;8.60;;;;;;;13.12;71.82;100965.41;108154;1254;72752;-82
2023/04/08 05:51:02;;;;;;;11.60;8.70;;;;;;;13.14;71.56;100963.91;108209;1257;59779;-81
2023/04/08 05:53:29;;;;;;;13.30;9.00;;;;;;;13.13;71.47;100967.23;108126;1254;60367;-82
2023/04/08 05:55:56;;;;;;;13.50;9.20;;;;;;;13.17;71.47;100967.46;108241;1254;75831;-82
2023/04/08 05:58:23;;;;;;;14.70;9.10;;;;;;;13.26;71.56;100966.65;108337;1257;72416;-82
2023/04/08 06:00:50;;;;;;;14.00;8.90;;;;;;;13.35;71.50;100970.11;108261;1254;73945;-82
2023/04/08 06:03:18;;;;;;;14.60;9.30;;;;;;;13.45;71.47;100971.89;108048;1254;61273;-82
2023/04/08 06:05:47;;;;;;;14.10;9.30;;;;;;;13.57;71.44;100973.20;108047;1254;60525;-81
2023/04/08 06:08:18;;;;;;;11.70;8.70;;;;;;;13.69;71.38;100967.43;108273;1254;74769;-83
2023/04/08 06:10:51;;;;;;;13.30;8.30;;;;;;;13.80;71.28;100969.42;108271;1254;72873;-82
2023/04/08 06:13:24;;;;;;;13.20;7.90;;;;;;;13.93;71.18;100975.11;108232;1254;72265;-82
2023/04/08 06:15:51;;;;;;;11.80;8.40;;;;;;;14.00;70.85;100977.80;108214;1254;62012;-83
2023/04/08 06:18:21;;;;;;;13.00;8.00;;;;;;;14.08;70.61;100978.58;108173;1254;60799;-83
2023/04/08 06:20:48;;;;;;;12.10;7.70;;;;;;;14.14;70.28;100977.57;108116;1254;73030;-83
2023/04/08 06:23:15;;;;;;;12.60;8.00;;;;;;;14.17;70.01;100979.83;108089;1255;71435;-83
2023/04/08 06:25:42;;;;;;;11.60;7.40;;;;;;;14.22;69.75;100980.68;108259;1254;73753;-83
2023/04/08 06:28:09;;;;;;;10.70;7.40;;;;;;;14.25;69.55;100982.55;108217;1254;60431;-83
2023/04/08 06:30:39;;;;;;;11.20;7.50;;;;;;;14.31;69.49;100985.92;108230;1254;60405;-83
2023/04/08 06:33:07;;;;;;;11.20;7.10;;;;;;;14.39;69.18;100988.11;107971;1254;74419;-84
2023/04/08 06:35:36;;;;;;;11.60;7.20;;;;;;;14.42;68.91;100985.70;108275;1259;72246;-82
2023/04/08 06:38:05;;;;;;;12.00;7.10;;;;;;;14.48;68.87;100983.38;108215;1254;71645;-83
2023/04/08 06:40:38;;;;;;;12.90;7.10;;;;;;;14.55;68.59;100982.42;108218;1254;61986;-83
2023/04/08 06:43:22;;;;;;;12.50;6.80;;;;;;;14.62;68.28;100987.77;108193;1254;60389;-83
2023/04/08 06:46:12;;;;;;;10.40;6.00;;;;;;;14.63;67.71;100989.59;108199;1257;74104;-83
2023/04/08 06:48:49;;;;;;;8.60;6.00;;;;;;;14.65;67.61;100991.33;108187;1255;72802;-83
2023/04/08 06:51:23;;;;;;;11.20;6.40;;;;;;;14.68;67.61;100993.89;108111;1254;74217;-83
2023/04/08 06:54:05;;;;;;;13.80;6.30;;;;;;;14.71;67.60;100995.38;108282;1254;62017;-83
2023/04/08 06:57:05;;;;;;;10.50;6.30;;;;;;;14.75;67.61;100998.28;108224;1254;60960;-83
2023/04/08 06:59:55;;;;;;;8.90;6.60;;;;;;;14.88;67.51;100998.89;108045;1254;75333;-83
2023/04/08 07:02:48;;;;;;;9.80;5.40;;;;;;;15.02;67.00;101004.30;108132;1254;73573;-84
2023/04/08 07:05:37;;;;;;;9.90;5.60;;;;;;;15.01;66.22;101008.04;108129;1255;73621;-84
2023/04/08 07:08:10;;;;;;;8.50;5.00;;;;;;;14.98;65.76;101006.70;108182;1254;63688;-83
2023/04/08 07:10:49;;;;;;;11.50;5.30;;;;;;;15.01;65.73;101005.60;108229;1254;62590;-83
2023/04/08 07:13:18;;;;;;;10.40;4.90;;;;;;;15.08;65.69;101009.77;108068;1260;75021;-82
2023/04/08 07:15:47;;;;;;;8.10;4.90;;;;;;;15.13;65.27;101007.39;108233;1255;73840;-83
2023/04/08 07:18:22;;;;;;;9.90;5.10;;;;;;;15.10;64.79;101004.91;108040;1257;71782;-83
2023/04/08 07:20:53;;;;;;;9.20;4.90;;;;;;;15.08;64.73;101009.29;108254;1255;61031;-83
2023/04/08 07:23:23;;;;;;;10.50;4.60;;;;;;;15.08;64.74;101014.08;108253;1254;62202;-83
2023/04/08 07:25:53;;;;;;;;;;;;;;;15.16;64.63;101015.55;108295;1259;73171;-83
2023/04/08 07:28:22;;;;;;;11.60;5.40;;;;;;;15.24;64.64;101015.84;108201;1254;73155;-84
2023/04/08 07:31:17;;;;;;;10.00;5.10;;;;;;;15.34;64.55;101013.20;108283;1258;72025;-83
2023/04/08 07:33:56;;;;;;;;;;;;;;;15.45;64.03;101013.30;108013;1256;61596;-84
2023/04/08 07:36:25;;;;;;;12.00;5.00;;;;;;;15.54;63.82;101013.84;108116;1254;60470;-84
2023/04/08 07:38:52;;;;;;;9.20;5.00;;;;;;;15.62;63.64;101010.24;107891;1257;74989;-83
2023/04/08 07:41:20;;;;;;;11.70;4.40;;;;;;;15.74;63.56;101011.32;108013;1258;73602;-84
2023/04/08 07:43:47;;;;;;;8.70;3.90;;;;;;;15.83;63.48;101013.14;108093;1254;73109;-84
2023/04/08 07:46:14;;;;;;;11.70;4.00;;;;;;;15.88;63.15;101015.67;108084;1259;60732;-84
2023/04/08 07:48:42;;;;;;;8.20;4.00;;;;;;;15.87;62.85;101012.15;108098;1254;60325;-83
2023/04/08 07:51:09;;;;;;;9.40;3.90;;;;;;;15.91;62.55;101010.33;108044;1254;74869;-84
2023/04/08 07:53:39;;;;;;;9.30;4.20;;;;;;;16.03;62.60;101011.63;107970;1259;72556;-84
2023/04/08 07:56:10;;;;;;;10.40;3.80;;;;;;;16.13;62.23;101002.44;108046;1254;72893;-83
2023/04/08 07:58:39;;;;;;;9.80;4.20;;;;;;;16.25;62.09;101002.66;108030;1259;61108;-84
2023/04/08 08:01:21;;;;;;;7.20;3.50;;;;;;;16.40;61.58;101001.97;107901;1259;61259;-83
2023/04/08 08:03:50;;;;;;;9.90;3.70;;;;;;;16.50;60.43;101000.74;107946;1254;72491;-83
2023/04/08 08:06:18;;;;;;;9.90;4.70;;;;;;;16.56;60.26;100995.66;108077;1254;72971;-84
2023/04/08 08:08:45;;;;;;;8.20;4.00;;;;;;;16.63;60.18;100997.89;107908;1254;73168;-83
2023/04/08 08:11:12;;;;;;;11.60;4.20;;;;;;;16.75;60.10;100991.96;107998;1254;60433;-85
2023/04/08 08:13:41;;;;;;;12.20;4.30;;;;;;;16.89;59.40;100992.89;108142;1259;61353;-83
2023/04/08 08:16:10;;;;;;;9.80;4.20;;;;;;;16.90;58.60;100992.45;108129;1259;75873;-84
2023/04/08 08:18:39;;;;;;;10.30;4.60;;;;;;;16.94;58.36;100990.23;108030;1254;72740;-85
2023/04/08 08:21:15;;;;;;;10.80;4.20;;;;;;;17.02;58.17;100990.02;108090;1260;72590;-84
2023/04/08 08:23:42;;;;;;;10.70;3.90;;;;;;;17.15;57.87;100987.54;108038;1258;60451;-84
2023/04/08 08:26:09;;;;;;;10.20;4.20;;;;;;;17.26;56.92;100990.95;108007;1257;61202;-84
2023/04/08 08:28:40;;;;;;;9.50;4.10;;;;;;;17.35;56.96;100988.08;108002;1257;75010;-86
2023/04/08 08:31:07;;;;;;;8.80;3.90;;;;;;;17.48;56.86;100987.52;108083;1258;72040;-84
2023/04/08 08:33:35;;;;;;;10.40;3.70;;;;;;;17.59;56.25;100987.41;108088;1259;71707;-83
2023/04/08 08:36:04;;;;;;;9.70;3.80;;;;;;;17.67;55.81;100988.25;108114;1254;62574;-84
2023/04/08 08:38:32;;;;;;;11.80;4.30;;;;;;;17.67;55.28;100983.08;108115;1259;60453;-82
2023/04/08 08:41:02;;;;;;;11.80;4.20;;;;;;;17.73;55.21;100985.96;108132;1254;73869;-83
2023/04/08 08:43:32;;;;;;;9.80;3.90;;;;;;;17.86;55.05;100986.53;108227;1254;74016;-84
2023/04/08 08:46:00;;;;;;;12.80;4.10;;;;;;;18.00;54.86;100989.11;108175;1259;72485;-83
2023/04/08 08:48:27;;;;;;;8.70;4.40;;;;;;;18.08;54.33;100986.77;108209;1254;60279;-83
2023/04/08 08:50:55;;;;;;;11.00;4.30;;;;;;;18.08;54.00;100987.09;108154;1254;61327;-83
2023/04/08 08:53:30;;;;;;;8.00;4.00;;;;;;;18.10;54.32;100986.40;108136;1254;74062;-83
2023/04/08 08:56:00;;;;;;;8.30;3.70;;;;;;;18.22;54.31;100981.60;108120;1255;72989;-85
2023/04/08 08:58:46;;;;;;;9.30;3.40;;;;;;;18.38;53.73;100981.41;108035;1258;72670;-85
2023/04/08 09:01:33;;;;;;;8.70;3.90;;;;;;;18.48;53.68;100982.64;108130;1254;60402;-85
2023/04/08 09:04:08;;;;;;;9.20;3.50;;;;;;;18.67;53.61;100986.45;108139;1254;60457;-83
2023/04/08 09:06:38;;;;;;;9.40;4.00;;;;;;;18.88;53.19;100988.81;108189;1254;73915;-84
2023/04/08 09:09:09;;;;;;;9.70;3.60;;;;;;;19.05;52.57;100987.36;108162;1254;73099;-84
2023/04/08 09:11:40;;;;;;;8.90;3.70;;;;;;;19.17;51.88;100986.13;108199;1254;72496;-86
2023/04/08 09:14:19;;;;;;;9.60;3.40;;;;;;;19.28;51.22;100983.91;108141;1259;60450;-84
2023/04/08 09:16:46;;;;;;;11.30;3.40;;;;;;;19.24;50.49;100984.86;108168;1254;59499;-84
2023/04/08 09:19:15;;;;;;;10.20;3.60;;;;;;;19.15;49.90;100983.63;108205;1254;75856;-84
2023/04/08 09:21:42;;;;;;;7.60;3.60;;;;;;;19.06;49.32;100983.45;108199;1254;71563;-86
2023/04/08 09:24:27;;;;;;;9.50;3.40;;;;;;;19.05;48.98;100980.77;108142;1255;72952;-85
2023/04/08 09:26:55;;;;;;;10.10;3.70;;;;;;;19.09;49.15;100981.91;108168;1254;60627;-85
2023/04/08 09:29:23;;;;;;;9.10;3.50;;;;;;;19.18;49.38;100983.40;107977;1260;59534;-84
2023/04/08 09:31:57;;;;;;;8.80;3.50;;;;;;;19.31;49.57;100984.16;108053;1256;74770;-84
2023/04/08 09:34:26;;;;;;;10.80;4.30;;;;;;;19.39;48.92;100981.11;108043;1257;73815;-84
2023/04/08 09:36:55;;;;;;;10.60;3.90;;;;;;;19.42;49.10;100984.39;108092;1256;71674;-85
2023/04/08 09:39:22;;;;;;;10.70;3.50;;;;;;;19.39;49.03;100986.79;108033;1257;61431;-85
2023/04/08 09:41:50;;;;;;;10.20;3.60;;;;;;;19.43;49.11;100986.59;108091;1256;61248;-83
2023/04/08 09:44:19;;;;;;;8.60;3.30;;;;;;;19.55;48.01;100989.69;108049;1258;73278;-84
2023/04/08 09:46:53;;;;;;;7.20;3.10;;;;;;;19.62;47.26;100992.61;108064;1257;71314;-85
2023/04/08 09:49:27;;;;;;;11.60;3.80;;;;;;;19.70;47.25;100989.58;108041;1260;71552;-84
2023/04/08 09:52:17;;;;;;;9.50;3.20;;;;;;;19.79;46.86;100989.41;108122;1257;60447;-84
2023/04/08 09:55:05;;;;;;;7.40;2.80;;;;;;;19.82;46.45;100986.02;108072;1257;60183;-85
2023/04/08 09:57:50;;;;;;;9.00;3.30;;;;;;;19.88;47.02;100991.46;108104;1257;74697;-86
2023/04/08 10:00:17;;;;;;;9.60;3.60;;;;;;;20.01;47.19;100990.24;108197;1254;72221;-84
2023/04/08 10:03:15;;;;;;;8.80;3.40;;;;;;;20.26;46.77;100993.43;108065;1259;72773;-90
2023/04/08 10:05:45;;;;;;;9.70;3.90;;;;;;;20.42;45.42;100986.34;108079;1254;60292;-85
2023/04/08 10:08:16;;;;;;;8.00;3.30;;;;;;;20.53;45.18;100990.08;108366;1254;60455;-84
2023/04/08 10:10:43;;;;;;;7.40;3.10;;;;;;;20.61;44.67;100992.27;108364;1254;73008;-84
2023/04/08 10:13:13;;;;;;;11.60;3.50;;;;;;;20.54;43.53;100992.16;108272;1254;72617;-83
2023/04/08 10:15:42;;;;;;;8.80;3.80;;;;;;;20.34;43.48;100997.29;108026;1254;72937;-86
2023/04/08 10:18:17;;;;;;;8.30;2.90;;;;;;;20.18;43.72;100994.13;108162;1254;60434;-85
2023/04/08 10:20:51;;;;;;;8.80;3.50;;;;;;;20.12;44.50;100994.98;108172;1254;61464;-84
2023/04/08 10:23:19;;;;;;;9.30;3.80;;;;;;;20.11;44.55;100994.58;108123;1254;73147;-85
2023/04/08 10:25:47;;;;;;;8.90;3.20;;;;;;;20.07;44.02;100994.89;107910;1258;73928;-87
2023/04/08 10:28:18;;;;;;;8.50;3.50;;;;;;;20.04;44.52;100993.41;108028;1256;71945;-85
2023/04/08 10:30:50;;;;;;;10.00;3.30;;;;;;;19.99;44.13;100995.27;108066;1257;61281;-85
2023/04/08 10:33:20;;;;;;;8.30;3.60;;;;;;;19.91;43.41;100995.13;108077;1254;60421;-85
2023/04/08 10:36:10;;;;;;;11.20;3.80;;;;;;;19.82;42.46;100991.83;108088;1254;74999;-85
2023/04/08 10:38:38;;;;;;;8.00;3.10;;;;;;;19.77;42.27;100993.05;108120;1254;73025;-85
2023/04/08 10:41:05;;;;;;;6.60;2.60;;;;;;;19.80;42.01;100995.94;108154;1255;73773;-85
2023/04/08 10:43:33;;;;;;;7.90;2.80;;;;;;;19.93;42.19;100989.45;108103;1254;60149;-85
2023/04/08 10:46:00;;;;;;;9.30;3.20;;;;;;;20.16;41.83;100987.73;108138;1255;61494;-86
2023/04/08 10:48:28;;;;;;;8.30;3.30;;;;;;;20.41;41.79;100985.93;108055;1254;73977;-85
2023/04/08 10:50:56;;;;;;;7.80;2.90;;;;;;;20.73;40.75;100984.92;108152;1254;72956;-85
2023/04/08 10:53:32;;;;;;;7.40;3.20;;;;;;;20.97;39.81;100982.33;108148;1254;74845;-87
2023/04/08 10:56:14;;;;;;;7.20;2.70;;;;;;;21.12;39.81;100981.14;108141;1254;60424;-85
2023/04/08 10:58:53;;;;;;;8.20;2.90;;;;;;;21.22;40.13;100980.48;107984;1254;60559;-84
2023/04/08 11:01:21;;;;;;;9.20;2.90;;;;;;;21.25;39.06;100978.56;108151;1254;74514;-86
2023/04/08 11:03:48;;;;;;;8.30;3.10;;;;;;;21.08;38.52;100977.48;108124;1254;72606;-87
2023/04/08 11:06:16;;;;;;;8.20;3.00;;;;;;;20.90;38.67;100975.48;108129;1254;72622;-88
2023/04/08 11:08:44;;;;;;;6.30;2.90;;;;;;;20.79;38.96;100976.91;108045;1254;61253;-86
2023/04/08 11:11:11;;;;;;;8.90;2.70;;;;;;;20.78;39.69;100971.81;108119;1257;61344;-86
2023/04/08 11:13:44;;;;;;;8.70;3.20;;;;;;;20.76;40.26;100972.52;108081;1257;73602;-87
2023/04/08 11:16:21;;;;;;;9.20;3.20;;;;;;;20.70;40.70;100969.90;108058;1257;71910;-87
2023/04/08 11:18:50;;;;;;;8.10;3.00;;;;;;;20.64;40.46;100972.46;108079;1255;73131;-85
2023/04/08 11:21:18;;;;;;;8.80;3.60;;;;;;;20.52;39.72;100969.54;108082;1254;60328;-84
2023/04/08 11:23:48;;;;;;;7.80;3.40;;;;;;;20.37;40.90;100978.55;108094;1254;60368;-85
2023/04/08 11:26:16;;;;;;;6.80;3.00;;;;;;;20.28;41.03;100975.42;108205;1254;73876;-86